Time;durP1;ratioP1;P1;durP2;ratioP2;P2;SDS_P1;SDS_P2;PMS_P1;PMS_P2;Temp;Humidity;BMP_temperature;BMP_pressure;BME280_temperature;BME280_humidity;BME280_pressure;Samples;Min_cycle;Max_cycle;Signal;HPM_P1;HPM_P2
2023/10/04 00:01:06;;;;;;;7.33;3.50;;;;;;;;;;5072246;28;20230;-55
2023/10/04 00:03:32;;;;;;;7.23;3.43;;;;;;;;;;5072361;28;20195;-55
2023/10/04 00:06:00;;;;;;;8.10;3.30;;;;;;;;;;5072107;28;20231;-55
2023/10/04 00:08:26;;;;;;;5.37;3.07;;;;;;;;;;5071764;28;20243;-55
2023/10/04 00:10:52;;;;;;;4.87;2.97;;;;;;;;;;5072272;28;20203;-55
2023/10/04 00:13:19;;;;;;;8.37;3.30;;;;;;;;;;5072008;28;20705;-54
2023/10/04 00:15:45;;;;;;;5.80;3.17;;;;;;;;;;5071944;28;20192;-55
2023/10/04 00:18:12;;;;;;;6.20;3.03;;;;;;;;;;5071014;28;20200;-54
2023/10/04 00:20:38;;;;;;;7.33;3.57;;;;;;;;;;5071709;28;20199;-54
2023/10/04 00:23:05;;;;;;;6.00;3.40;;;;;;;;;;5049973;28;20203;-54
2023/10/04 00:25:33;;;;;;;6.53;3.37;;;;;;;;;;5051940;28;20224;-54
2023/10/04 00:27:59;;;;;;;6.37;3.13;;;;;;;;;;5051926;28;20191;-54
2023/10/04 00:30:26;;;;;;;7.80;3.30;;;;;;;;;;5051776;28;20205;-55
2023/10/04 00:32:53;;;;;;;6.63;3.50;;;;;;;;;;5051975;28;20200;-53
2023/10/04 00:35:19;;;;;;;5.60;3.20;;;;;;;;;;5051726;28;20291;-52
2023/10/04 00:37:47;;;;;;;5.80;3.77;;;;;;;;;;5051875;28;20210;-52
2023/10/04 00:40:19;;;;;;;7.50;3.07;;;;;;;;;;5051413;28;20240;-53
2023/10/04 00:42:49;;;;;;;7.03;3.57;;;;;;;;;;5051719;28;20204;-54
2023/10/04 00:45:15;;;;;;;5.37;3.40;;;;;;;;;;5051813;28;20234;-54
2023/10/04 00:47:51;;;;;;;5.10;3.30;;;;;;;;;;5051770;28;20283;-54
2023/10/04 00:50:22;;;;;;;6.50;3.23;;;;;;;;;;5051584;28;20658;-54
2023/10/04 00:52:52;;;;;;;10.27;3.87;;;;;;;;;;5051860;28;20215;-54
2023/10/04 00:55:19;;;;;;;5.93;3.10;;;;;;;;;;5051636;28;20204;-54
2023/10/04 00:57:48;;;;;;;4.87;2.77;;;;;;;;;;5051581;28;20200;-54
2023/10/04 01:00:15;;;;;;;5.60;2.87;;;;;;;;;;5051386;28;20616;-54
2023/10/04 01:02:41;;;;;;;6.07;3.20;;;;;;;;;;5051594;28;20543;-54
2023/10/04 01:05:07;;;;;;;5.67;3.40;;;;;;;;;;5051233;28;20220;-54
2023/10/04 01:07:34;;;;;;;6.80;3.10;;;;;;;;;;5051849;28;20647;-53
2023/10/04 01:10:00;;;;;;;9.27;3.27;;;;;;;;;;5051477;28;20200;-54
2023/10/04 01:12:28;;;;;;;6.20;2.90;;;;;;;;;;5051422;28;20262;-54
2023/10/04 01:14:53;;;;;;;7.20;3.30;;;;;;;;;;5051439;28;20192;-54
2023/10/04 01:17:20;;;;;;;8.97;3.30;;;;;;;;;;5051440;28;20207;-54
2023/10/04 01:19:46;;;;;;;5.47;2.80;;;;;;;;;;5051494;28;20242;-54
2023/10/04 01:22:13;;;;;;;5.93;3.03;;;;;;;;;;5051142;28;20944;-54
2023/10/04 01:24:41;;;;;;;7.70;2.77;;;;;;;;;;5051331;28;20232;-54
2023/10/04 01:27:08;;;;;;;6.53;3.10;;;;;;;;;;5051319;28;20200;-54
2023/10/04 01:29:36;;;;;;;6.17;3.00;;;;;;;;;;5051912;28;20216;-54
2023/10/04 01:32:07;;;;;;;6.17;2.97;;;;;;;;;;5055371;28;20206;-54
2023/10/04 01:34:36;;;;;;;6.03;3.00;;;;;;;;;;5055311;28;20200;-54
2023/10/04 01:37:03;;;;;;;8.17;3.03;;;;;;;;;;5055299;28;20220;-54
2023/10/04 01:39:31;;;;;;;7.00;3.13;;;;;;;;;;5054834;28;20246;-54
2023/10/04 01:41:57;;;;;;;5.13;2.93;;;;;;;;;;5055115;28;20203;-54
2023/10/04 01:44:23;;;;;;;7.17;2.90;;;;;;;;;;5054834;28;20280;-53
2023/10/04 01:46:50;;;;;;;6.30;2.90;;;;;;;;;;5055184;28;20611;-54
2023/10/04 01:49:16;;;;;;;5.73;3.10;;;;;;;;;;5054972;28;20204;-54
2023/10/04 01:51:42;;;;;;;6.77;3.20;;;;;;;;;;5054812;28;20572;-54
2023/10/04 01:54:09;;;;;;;4.50;2.87;;;;;;;;;;5054872;28;20195;-54
2023/10/04 01:56:37;;;;;;;5.50;3.17;;;;;;;;;;5054978;28;20204;-54
2023/10/04 01:59:05;;;;;;;7.60;3.10;;;;;;;;;;5054852;28;20679;-54
2023/10/04 02:01:31;;;;;;;7.50;3.60;;;;;;;;;;5054905;28;20200;-54
2023/10/04 02:04:01;;;;;;;7.77;4.00;;;;;;;;;;5054659;28;20234;-54
2023/10/04 02:06:28;;;;;;;6.67;3.37;;;;;;;;;;5054509;28;20261;-54
2023/10/04 02:08:54;;;;;;;8.67;3.90;;;;;;;;;;5054556;28;20227;-53
2023/10/04 02:11:22;;;;;;;5.57;3.13;;;;;;;;;;5054581;28;20202;-54
2023/10/04 02:13:50;;;;;;;6.33;3.37;;;;;;;;;;5054533;28;20573;-54
2023/10/04 02:16:18;;;;;;;6.27;3.43;;;;;;;;;;5054505;28;20614;-54
2023/10/04 02:18:44;;;;;;;6.07;3.80;;;;;;;;;;5054539;28;20622;-54
2023/10/04 02:21:10;;;;;;;6.33;3.37;;;;;;;;;;5054206;28;20223;-54
2023/10/04 02:23:38;;;;;;;6.07;3.27;;;;;;;;;;5054397;28;20203;-54
2023/10/04 02:26:07;;;;;;;6.87;3.37;;;;;;;;;;5054263;28;20254;-54
2023/10/04 02:28:33;;;;;;;6.60;3.10;;;;;;;;;;5054364;28;20231;-54
2023/10/04 02:31:02;;;;;;;5.33;3.30;;;;;;;;;;5054070;28;20292;-54
2023/10/04 02:33:38;;;;;;;5.20;3.37;;;;;;;;;;5054072;28;20204;-54
2023/10/04 02:36:07;;;;;;;5.50;3.30;;;;;;;;;;5054053;28;20763;-54
2023/10/04 02:38:34;;;;;;;8.03;3.43;;;;;;;;;;5054012;28;20271;-54
2023/10/04 02:41:00;;;;;;;6.63;3.10;;;;;;;;;;5053374;28;20210;-54
2023/10/04 02:43:26;;;;;;;8.70;3.90;;;;;;;;;;5053592;28;20204;-54
2023/10/04 02:45:53;;;;;;;6.00;3.60;;;;;;;;;;5053749;28;20681;-54
2023/10/04 02:48:20;;;;;;;8.60;3.37;;;;;;;;;;5053915;28;20201;-54
2023/10/04 02:50:46;;;;;;;7.07;3.30;;;;;;;;;;5053957;28;20219;-54
2023/10/04 02:53:16;;;;;;;6.97;3.67;;;;;;;;;;5053770;28;20582;-54
2023/10/04 02:55:46;;;;;;;5.70;3.57;;;;;;;;;;5053789;28;20196;-54
2023/10/04 02:58:13;;;;;;;7.57;3.50;;;;;;;;;;5053714;28;20204;-54
2023/10/04 03:00:44;;;;;;;6.00;3.40;;;;;;;;;;5053532;28;20576;-54
2023/10/04 03:03:14;;;;;;;9.30;3.47;;;;;;;;;;5053500;28;20196;-54
2023/10/04 03:05:42;;;;;;;6.17;3.33;;;;;;;;;;5053421;28;20286;-54
2023/10/04 03:08:11;;;;;;;8.67;3.53;;;;;;;;;;5053384;28;20222;-54
2023/10/04 03:10:37;;;;;;;5.57;3.40;;;;;;;;;;5053348;28;20208;-54
2023/10/04 03:13:12;;;;;;;5.30;3.13;;;;;;;;;;5053446;28;20716;-54
2023/10/04 03:15:38;;;;;;;5.50;3.47;;;;;;;;;;5053411;28;20196;-54
2023/10/04 03:18:13;;;;;;;6.60;3.43;;;;;;;;;;5053371;28;20298;-54
2023/10/04 03:20:45;;;;;;;4.53;2.87;;;;;;;;;;5053277;28;20196;-54
2023/10/04 03:23:18;;;;;;;6.27;3.07;;;;;;;;;;5053140;28;20205;-54
2023/10/04 03:25:46;;;;;;;8.00;3.43;;;;;;;;;;5053168;28;20264;-54
2023/10/04 03:28:12;;;;;;;4.90;2.90;;;;;;;;;;5053096;28;20250;-54
2023/10/04 03:30:39;;;;;;;7.37;3.47;;;;;;;;;;5052891;28;20223;-53
2023/10/04 03:33:05;;;;;;;4.47;3.00;;;;;;;;;;5053120;28;20573;-54
2023/10/04 03:35:31;;;;;;;7.33;3.10;;;;;;;;;;5052794;28;20311;-53
2023/10/04 03:38:02;;;;;;;4.90;2.90;;;;;;;;;;5053003;28;20200;-54
2023/10/04 03:40:34;;;;;;;4.90;3.10;;;;;;;;;;5052720;28;20240;-54
2023/10/04 03:43:00;;;;;;;5.43;3.20;;;;;;;;;;5053004;28;20205;-54
2023/10/04 03:45:26;;;;;;;5.13;3.47;;;;;;;;;;5052536;28;20228;-54
2023/10/04 03:47:52;;;;;;;7.07;3.43;;;;;;;;;;5052796;28;20206;-54
2023/10/04 03:50:19;;;;;;;9.07;3.80;;;;;;;;;;5052647;28;20220;-54
2023/10/04 03:52:46;;;;;;;9.30;3.10;;;;;;;;;;5052599;28;20200;-54
2023/10/04 03:55:13;;;;;;;9.47;3.90;;;;;;;;;;5052558;28;20244;-54
2023/10/04 03:57:42;;;;;;;6.97;3.40;;;;;;;;;;5052621;28;20192;-54
2023/10/04 04:00:11;;;;;;;6.90;3.53;;;;;;;;;;5052522;28;20208;-54
2023/10/04 04:02:38;;;;;;;6.77;3.27;;;;;;;;;;5052423;28;20242;-54
2023/10/04 04:05:05;;;;;;;6.57;3.40;;;;;;;;;;5052378;28;20652;-54
2023/10/04 04:07:32;;;;;;;7.90;3.83;;;;;;;;;;5052387;28;20223;-54
2023/10/04 04:09:58;;;;;;;6.93;3.53;;;;;;;;;;5052351;28;20206;-54
2023/10/04 04:12:24;;;;;;;5.73;3.20;;;;;;;;;;5052118;28;20200;-54
2023/10/04 04:14:53;;;;;;;7.77;3.53;;;;;;;;;;5052363;28;20246;-54
2023/10/04 04:17:22;;;;;;;4.83;3.17;;;;;;;;;;5052182;28;20270;-54
2023/10/04 04:19:49;;;;;;;8.63;3.37;;;;;;;;;;5052232;28;20208;-54
2023/10/04 04:22:17;;;;;;;8.37;3.70;;;;;;;;;;5052071;28;20337;-54
2023/10/04 04:24:44;;;;;;;7.87;3.60;;;;;;;;;;5052028;28;20673;-54
2023/10/04 04:27:11;;;;;;;4.83;3.30;;;;;;;;;;5051992;28;20295;-54
2023/10/04 04:29:38;;;;;;;6.77;3.40;;;;;;;;;;5051917;28;20203;-54
2023/10/04 04:32:06;;;;;;;9.50;3.30;;;;;;;;;;5051956;28;20204;-54
2023/10/04 04:34:32;;;;;;;8.33;3.07;;;;;;;;;;5051873;28;20200;-54
2023/10/04 04:36:59;;;;;;;7.33;3.50;;;;;;;;;;5051718;28;20228;-53
2023/10/04 04:39:28;;;;;;;6.37;3.30;;;;;;;;;;5051738;28;20224;-54
2023/10/04 04:41:55;;;;;;;8.90;2.90;;;;;;;;;;5051911;28;20200;-54
2023/10/04 04:44:27;;;;;;;7.20;3.37;;;;;;;;;;5051574;28;20228;-54
2023/10/04 04:46:53;;;;;;;8.40;3.63;;;;;;;;;;5051130;28;20781;-54
2023/10/04 04:49:20;;;;;;;7.00;3.53;;;;;;;;;;5051607;28;20682;-54
2023/10/04 04:51:46;;;;;;;9.80;3.50;;;;;;;;;;5051726;28;20318;-54
2023/10/04 04:54:13;;;;;;;8.60;3.30;;;;;;;;;;5051612;28;20287;-54
2023/10/04 04:56:39;;;;;;;5.87;2.87;;;;;;;;;;5051418;28;20223;-54
2023/10/04 04:59:08;;;;;;;8.30;3.83;;;;;;;;;;5051604;28;20618;-54
2023/10/04 05:01:34;;;;;;;8.40;3.40;;;;;;;;;;5051522;28;20279;-54
2023/10/04 05:04:05;;;;;;;7.73;3.53;;;;;;;;;;5051073;28;20284;-54
2023/10/04 05:06:33;;;;;;;9.63;3.30;;;;;;;;;;5051251;28;20683;-54
2023/10/04 05:08:59;;;;;;;7.33;3.50;;;;;;;;;;5051471;28;20208;-54
2023/10/04 05:11:25;;;;;;;6.57;3.50;;;;;;;;;;5051345;28;20200;-54
2023/10/04 05:13:51;;;;;;;6.40;3.30;;;;;;;;;;5049896;28;20234;-54
2023/10/04 05:16:17;;;;;;;5.90;3.30;;;;;;;;;;5051425;28;20246;-54
2023/10/04 05:18:43;;;;;;;9.57;3.60;;;;;;;;;;5051060;28;20674;-54
2023/10/04 05:21:10;;;;;;;8.10;3.30;;;;;;;;;;5049320;28;20196;-54
2023/10/04 05:23:38;;;;;;;8.93;4.47;;;;;;;;;;5051215;28;20204;-54
2023/10/04 05:26:04;;;;;;;7.20;3.30;;;;;;;;;;5049639;28;20238;-54
2023/10/04 05:28:30;;;;;;;6.50;3.30;;;;;;;;;;5051211;28;20200;-54
2023/10/04 05:30:57;;;;;;;9.97;3.70;;;;;;;;;;5051170;28;20226;-54
2023/10/04 05:33:23;;;;;;;10.03;3.50;;;;;;;;;;5051064;28;20229;-54
2023/10/04 05:35:53;;;;;;;5.23;3.00;;;;;;;;;;5049482;28;20289;-54
2023/10/04 05:38:19;;;;;;;5.10;3.00;;;;;;;;;;5050816;28;20275;-54
2023/10/04 05:40:47;;;;;;;6.47;3.30;;;;;;;;;;5050254;28;20239;-54
2023/10/04 05:43:13;;;;;;;8.33;3.50;;;;;;;;;;5050562;28;20295;-54
2023/10/04 05:45:42;;;;;;;8.37;3.43;;;;;;;;;;5050872;28;20554;-54
2023/10/04 05:48:09;;;;;;;4.67;3.13;;;;;;;;;;5051031;28;20224;-54
2023/10/04 05:50:35;;;;;;;10.13;3.53;;;;;;;;;;5050669;28;20200;-54
2023/10/04 05:53:05;;;;;;;4.87;3.90;;;;;;;;;;5051115;28;20192;-54
2023/10/04 05:55:32;;;;;;;10.37;3.70;;;;;;;;;;5051014;28;20273;-54
2023/10/04 05:57:59;;;;;;;8.27;3.30;;;;;;;;;;5051114;28;20205;-54
2023/10/04 06:00:28;;;;;;;7.00;3.10;;;;;;;;;;5050847;28;20537;-54
2023/10/04 06:02:55;;;;;;;10.13;3.50;;;;;;;;;;5050957;28;20302;-54
2023/10/04 06:05:22;;;;;;;7.60;3.10;;;;;;;;;;5050769;28;20282;-54
2023/10/04 06:07:48;;;;;;;18.53;3.57;;;;;;;;;;5050972;28;20651;-53
2023/10/04 06:10:15;;;;;;;8.47;3.67;;;;;;;;;;5050759;28;20204;-54
2023/10/04 06:12:41;;;;;;;7.67;3.20;;;;;;;;;;5050818;28;20193;-54
2023/10/04 06:15:14;;;;;;;8.27;3.53;;;;;;;;;;5050873;28;20548;-53
2023/10/04 06:17:42;;;;;;;9.63;3.47;;;;;;;;;;5049586;28;20253;-54
2023/10/04 06:20:24;;;;;;;8.87;3.07;;;;;;;;;;5054406;28;20207;-53
2023/10/04 06:22:50;;;;;;;9.40;3.33;;;;;;;;;;5054424;28;20685;-54
2023/10/04 06:25:17;;;;;;;5.50;2.70;;;;;;;;;;5054320;28;20224;-54
2023/10/04 06:27:43;;;;;;;10.33;3.47;;;;;;;;;;5054193;28;20546;-54
2023/10/04 06:30:16;;;;;;;6.73;2.80;;;;;;;;;;5054213;28;20200;-54
2023/10/04 06:32:43;;;;;;;5.47;2.90;;;;;;;;;;5054208;28;20209;-54
2023/10/04 06:35:09;;;;;;;9.47;3.63;;;;;;;;;;5052182;28;20707;-54
2023/10/04 06:37:36;;;;;;;8.57;3.37;;;;;;;;;;5054096;28;20207;-54
2023/10/04 06:40:03;;;;;;;10.00;3.30;;;;;;;;;;5054008;28;20248;-54
2023/10/04 06:42:29;;;;;;;6.47;3.23;;;;;;;;;;5054107;28;20200;-54
2023/10/04 06:44:56;;;;;;;6.27;2.77;;;;;;;;;;5053880;28;20358;-54
2023/10/04 06:47:24;;;;;;;10.17;3.50;;;;;;;;;;5051977;28;20621;-54
2023/10/04 06:49:50;;;;;;;7.97;3.50;;;;;;;;;;5053912;28;20210;-54
2023/10/04 06:52:16;;;;;;;8.80;2.63;;;;;;;;;;5054091;28;20196;-54
2023/10/04 06:54:42;;;;;;;8.53;3.00;;;;;;;;;;5053782;28;20245;-54
2023/10/04 06:57:08;;;;;;;10.43;3.27;;;;;;;;;;5053677;28;20196;-54
2023/10/04 06:59:34;;;;;;;9.47;3.00;;;;;;;;;;5053794;28;20674;-54
2023/10/04 07:02:00;;;;;;;5.43;2.70;;;;;;;;;;5053650;28;20200;-54
2023/10/04 07:04:27;;;;;;;8.60;3.40;;;;;;;;;;5053353;28;20208;-54
2023/10/04 07:06:53;;;;;;;8.00;3.40;;;;;;;;;;5053502;28;20667;-54
2023/10/04 07:09:19;;;;;;;6.37;3.10;;;;;;;;;;5050177;28;20200;-54
2023/10/04 07:11:46;;;;;;;8.07;3.07;;;;;;;;;;5053386;28;20196;-54
2023/10/04 07:14:12;;;;;;;6.17;2.87;;;;;;;;;;5051711;28;20192;-54
2023/10/04 07:16:38;;;;;;;8.00;3.40;;;;;;;;;;5053347;28;20201;-53
2023/10/04 07:19:04;;;;;;;7.37;3.23;;;;;;;;;;5053212;28;20216;-53
2023/10/04 07:21:32;;;;;;;7.33;2.90;;;;;;;;;;5053200;28;20261;-53
2023/10/04 07:23:58;;;;;;;9.57;3.67;;;;;;;;;;5053272;28;20200;-53
2023/10/04 07:26:24;;;;;;;7.80;3.47;;;;;;;;;;5052980;28;20311;-53
2023/10/04 07:28:50;;;;;;;4.93;2.80;;;;;;;;;;5051100;28;20216;-53
2023/10/04 07:31:16;;;;;;;6.53;3.33;;;;;;;;;;5053172;28;20231;-53
2023/10/04 07:33:42;;;;;;;7.70;3.40;;;;;;;;;;5053094;28;20206;-53
2023/10/04 07:36:08;;;;;;;10.70;3.03;;;;;;;;;;5052874;28;20212;-53
2023/10/04 07:38:35;;;;;;;5.90;2.60;;;;;;;;;;5051090;28;20679;-53
2023/10/04 07:41:01;;;;;;;10.83;2.77;;;;;;;;;;5051314;28;20201;-54
2023/10/04 07:43:27;;;;;;;6.73;3.40;;;;;;;;;;5052598;28;20226;-53
2023/10/04 07:45:56;;;;;;;10.37;3.20;;;;;;;;;;5052830;28;20224;-53
2023/10/04 07:48:22;;;;;;;5.67;2.80;;;;;;;;;;5052629;28;20284;-53
2023/10/04 07:50:48;;;;;;;7.93;3.07;;;;;;;;;;5052894;28;20594;-53
2023/10/04 07:53:14;;;;;;;8.80;2.67;;;;;;;;;;5050919;28;20242;-53
2023/10/04 07:55:41;;;;;;;8.47;3.00;;;;;;;;;;5052462;28;20283;-53
2023/10/04 07:58:09;;;;;;;8.10;3.07;;;;;;;;;;5052474;28;20200;-53
2023/10/04 08:00:36;;;;;;;6.13;3.13;;;;;;;;;;5052472;28;20201;-53
2023/10/04 08:03:03;;;;;;;7.70;2.93;;;;;;;;;;5052328;28;20208;-53
2023/10/04 08:05:31;;;;;;;8.73;3.00;;;;;;;;;;5052217;28;20243;-53
2023/10/04 08:07:58;;;;;;;9.70;3.10;;;;;;;;;;5052434;28;20200;-53
2023/10/04 08:10:29;;;;;;;4.83;2.80;;;;;;;;;;5052282;28;20220;-53
2023/10/04 08:12:59;;;;;;;7.87;2.97;;;;;;;;;;5052317;28;20205;-54
2023/10/04 08:15:25;;;;;;;11.70;3.53;;;;;;;;;;5052083;28;20204;-53
2023/10/04 08:17:52;;;;;;;6.10;3.13;;;;;;;;;;5052373;28;20271;-53
2023/10/04 08:20:19;;;;;;;8.63;3.20;;;;;;;;;;5052185;28;20200;-53
2023/10/04 08:22:46;;;;;;;6.63;2.70;;;;;;;;;;5052110;28;20208;-53
2023/10/04 08:25:13;;;;;;;11.07;3.10;;;;;;;;;;5051967;28;20771;-53
2023/10/04 08:27:39;;;;;;;5.17;2.43;;;;;;;;;;5051902;28;20215;-53
2023/10/04 08:30:07;;;;;;;9.27;3.03;;;;;;;;;;5052140;28;20204;-53
2023/10/04 08:32:33;;;;;;;7.07;3.00;;;;;;;;;;5051939;28;20745;-53
2023/10/04 08:34:59;;;;;;;8.63;2.90;;;;;;;;;;5051729;28;20276;-54
2023/10/04 08:37:27;;;;;;;7.73;3.03;;;;;;;;;;5051761;28;20212;-53
2023/10/04 08:39:53;;;;;;;9.00;3.23;;;;;;;;;;5050758;28;20247;-53
2023/10/04 08:42:19;;;;;;;8.90;2.83;;;;;;;;;;5051702;28;20196;-52
2023/10/04 08:44:46;;;;;;;7.03;3.03;;;;;;;;;;5051602;28;20691;-56
2023/10/04 08:47:13;;;;;;;7.97;2.80;;;;;;;;;;5051618;28;20196;-54
2023/10/04 08:49:45;;;;;;;7.30;2.77;;;;;;;;;;5051256;28;20249;-53
2023/10/04 08:52:14;;;;;;;6.47;2.80;;;;;;;;;;5051442;28;20659;-53
2023/10/04 08:54:41;;;;;;;7.60;2.87;;;;;;;;;;5051425;28;20196;-53
2023/10/04 08:57:13;;;;;;;6.00;3.10;;;;;;;;;;5051740;28;20234;-54
2023/10/04 08:59:40;;;;;;;6.93;3.20;;;;;;;;;;5051434;28;20203;-54
2023/10/04 09:02:09;;;;;;;9.87;2.93;;;;;;;;;;5051628;28;20590;-53
2023/10/04 09:04:39;;;;;;;10.80;2.73;;;;;;;;;;5051559;28;20224;-53
2023/10/04 09:07:08;;;;;;;9.97;3.30;;;;;;;;;;5051658;28;20613;-53
2023/10/04 09:09:38;;;;;;;6.07;2.37;;;;;;;;;;5051712;28;20235;-54
2023/10/04 09:12:04;;;;;;;8.47;3.13;;;;;;;;;;5051753;28;20208;-54
2023/10/04 09:14:31;;;;;;;11.63;3.37;;;;;;;;;;5051582;28;20192;-54
2023/10/04 09:17:05;;;;;;;9.03;3.10;;;;;;;;;;5049688;28;20283;-54
2023/10/04 09:19:32;;;;;;;9.07;3.00;;;;;;;;;;5051097;28;20663;-54
2023/10/04 09:22:04;;;;;;;7.53;3.17;;;;;;;;;;5050820;28;20200;-54
2023/10/04 09:24:30;;;;;;;8.27;3.20;;;;;;;;;;5051079;28;20612;-54
2023/10/04 09:26:56;;;;;;;7.80;3.17;;;;;;;;;;5051188;28;20526;-54
2023/10/04 09:29:29;;;;;;;7.07;3.03;;;;;;;;;;5051060;28;20219;-54
2023/10/04 09:31:55;;;;;;;6.90;3.03;;;;;;;;;;5051083;28;20197;-54
2023/10/04 09:34:25;;;;;;;8.50;3.13;;;;;;;;;;5050968;28;20216;-54
2023/10/04 09:36:54;;;;;;;6.10;2.83;;;;;;;;;;5050985;28;20306;-53
2023/10/04 09:39:23;;;;;;;7.43;3.00;;;;;;;;;;5050855;28;20228;-54
2023/10/04 09:41:50;;;;;;;7.57;3.20;;;;;;;;;;5051105;28;20212;-54
2023/10/04 09:44:20;;;;;;;7.03;3.40;;;;;;;;;;5051183;28;20196;-53
2023/10/04 09:46:54;;;;;;;8.47;3.57;;;;;;;;;;5051308;28;20232;-53
2023/10/04 09:49:20;;;;;;;12.07;4.30;;;;;;;;;;5051357;28;20203;-53
2023/10/04 09:51:46;;;;;;;11.33;3.00;;;;;;;;;;5053809;28;20298;-53
2023/10/04 09:54:16;;;;;;;8.77;3.50;;;;;;;;;;5055168;28;20250;-53
2023/10/04 09:56:44;;;;;;;10.30;3.93;;;;;;;;;;5055032;28;20694;-53
2023/10/04 09:59:11;;;;;;;10.37;3.87;;;;;;;;;;5055167;28;20296;-53
2023/10/04 10:01:38;;;;;;;7.23;3.50;;;;;;;;;;5054864;28;20201;-54
2023/10/04 10:04:08;;;;;;;8.83;3.40;;;;;;;;;;5054957;28;20227;-53
2023/10/04 10:06:40;;;;;;;6.97;3.20;;;;;;;;;;5054854;28;20232;-54
2023/10/04 10:09:11;;;;;;;6.97;3.40;;;;;;;;;;5054948;28;20711;-53
2023/10/04 10:11:37;;;;;;;8.63;3.43;;;;;;;;;;5054681;28;20670;-54
2023/10/04 10:14:09;;;;;;;9.30;3.30;;;;;;;;;;5054955;28;20277;-54
2023/10/04 10:16:36;;;;;;;10.47;3.40;;;;;;;;;;5054679;28;20261;-53
2023/10/04 10:19:03;;;;;;;8.60;3.30;;;;;;;;;;5054614;28;20539;-54
2023/10/04 10:21:47;;;;;;;9.27;3.37;;;;;;;;;;5054593;28;20206;-55
2023/10/04 10:24:15;;;;;;;7.13;3.70;;;;;;;;;;5054637;28;20283;-54
2023/10/04 10:26:41;;;;;;;9.67;3.70;;;;;;;;;;5054461;28;20231;-54
2023/10/04 10:29:20;;;;;;;6.93;3.47;;;;;;;;;;5054648;28;20245;-54
2023/10/04 10:31:52;;;;;;;4.60;2.60;;;;;;;;;;5054367;28;20217;-55
2023/10/04 10:34:18;;;;;;;8.47;3.53;;;;;;;;;;5054505;28;20202;-55
2023/10/04 10:36:44;;;;;;;7.17;4.00;;;;;;;;;;5054048;28;20223;-54
2023/10/04 10:39:20;;;;;;;7.10;3.33;;;;;;;;;;5054118;28;20765;-54
2023/10/04 10:42:04;;;;;;;9.17;3.67;;;;;;;;;;5054102;28;20264;-54
2023/10/04 10:44:33;;;;;;;7.17;3.80;;;;;;;;;;5054100;28;20206;-54
2023/10/04 10:47:02;;;;;;;9.30;4.07;;;;;;;;;;5054263;28;20230;-54
2023/10/04 10:49:41;;;;;;;8.53;3.73;;;;;;;;;;5053903;28;20242;-55
2023/10/04 10:52:09;;;;;;;8.57;3.60;;;;;;;;;;5054146;28;20208;-55
2023/10/04 10:54:36;;;;;;;7.80;3.87;;;;;;;;;;5053935;28;20250;-55
2023/10/04 10:57:02;;;;;;;6.73;3.30;;;;;;;;;;5054011;28;20187;-54
2023/10/04 10:59:29;;;;;;;7.20;3.53;;;;;;;;;;5053957;28;20203;-54
2023/10/04 11:01:57;;;;;;;6.57;3.53;;;;;;;;;;5053471;28;20283;-54
2023/10/04 11:04:23;;;;;;;7.33;3.57;;;;;;;;;;5053299;28;20253;-54
2023/10/04 11:06:49;;;;;;;8.53;3.77;;;;;;;;;;5053715;28;20231;-54
2023/10/04 11:09:17;;;;;;;7.33;3.37;;;;;;;;;;5053728;28;20701;-54
2023/10/04 11:11:43;;;;;;;7.30;3.60;;;;;;;;;;5053559;28;20207;-54
2023/10/04 11:14:09;;;;;;;10.47;3.80;;;;;;;;;;5053492;28;20731;-54
2023/10/04 11:16:36;;;;;;;8.37;3.23;;;;;;;;;;5053574;28;20200;-54
2023/10/04 11:19:04;;;;;;;9.17;4.30;;;;;;;;;;5053379;28;20661;-54
2023/10/04 11:21:30;;;;;;;10.03;4.03;;;;;;;;;;5053158;28;20238;-54
2023/10/04 11:24:01;;;;;;;7.27;3.37;;;;;;;;;;5053529;28;20234;-54
2023/10/04 11:26:28;;;;;;;7.67;3.70;;;;;;;;;;5053246;28;20223;-53
2023/10/04 11:28:55;;;;;;;6.57;3.60;;;;;;;;;;5053214;28;20262;-54
2023/10/04 11:31:21;;;;;;;8.83;3.57;;;;;;;;;;5053264;28;20195;-54
2023/10/04 11:33:50;;;;;;;6.07;3.83;;;;;;;;;;5053238;28;20196;-54
2023/10/04 11:36:22;;;;;;;7.70;3.60;;;;;;;;;;5053220;28;20218;-54
2023/10/04 11:38:49;;;;;;;7.00;3.87;;;;;;;;;;5052993;28;20246;-54
2023/10/04 11:41:15;;;;;;;8.80;4.40;;;;;;;;;;5053330;28;20204;-54
2023/10/04 11:43:44;;;;;;;9.10;3.63;;;;;;;;;;5052804;28;20188;-54
2023/10/04 11:46:10;;;;;;;8.57;3.70;;;;;;;;;;5052814;28;20730;-54
2023/10/04 11:48:36;;;;;;;8.60;4.13;;;;;;;;;;5052707;28;20662;-54
2023/10/04 11:51:04;;;;;;;8.67;3.80;;;;;;;;;;5052621;28;20250;-54
2023/10/04 11:53:32;;;;;;;8.83;3.47;;;;;;;;;;5052839;28;20720;-54
2023/10/04 11:55:58;;;;;;;8.73;3.83;;;;;;;;;;5052901;28;20239;-57
2023/10/04 11:58:24;;;;;;;8.87;3.50;;;;;;;;;;5052657;28;20312;-54
2023/10/04 12:01:02;;;;;;;6.13;3.10;;;;;;;;;;5052688;28;20270;-55
2023/10/04 12:03:28;;;;;;;8.37;3.57;;;;;;;;;;5052544;28;20200;-55
2023/10/04 12:05:56;;;;;;;5.73;2.80;;;;;;;;;;5052465;28;20591;-54
2023/10/04 12:08:22;;;;;;;7.03;3.47;;;;;;;;;;5047283;28;20200;-55
2023/10/04 12:10:50;;;;;;;8.03;3.43;;;;;;;;;;5032423;28;20212;-56
2023/10/04 12:13:16;;;;;;;7.37;3.27;;;;;;;;;;5032554;28;20197;-56
2023/10/04 12:15:42;;;;;;;6.47;2.97;;;;;;;;;;5032276;28;20189;-57
2023/10/04 12:18:09;;;;;;;8.87;3.40;;;;;;;;;;5031815;28;20204;-56
2023/10/04 12:20:38;;;;;;;7.03;2.93;;;;;;;;;;5032218;28;20231;-56
2023/10/04 12:23:05;;;;;;;7.93;3.30;;;;;;;;;;5032489;28;20206;-56
2023/10/04 12:25:32;;;;;;;7.97;3.33;;;;;;;;;;5032099;28;20415;-56
2023/10/04 12:28:02;;;;;;;8.30;3.10;;;;;;;;;;5032146;28;20782;-56
2023/10/04 12:30:31;;;;;;;7.53;3.87;;;;;;;;;;5068399;28;20659;-56
2023/10/04 12:32:57;;;;;;;7.03;3.60;;;;;;;;;;5071961;28;20278;-56
2023/10/04 12:35:23;;;;;;;11.37;3.40;;;;;;;;;;5071991;28;20215;-56
2023/10/04 12:37:49;;;;;;;7.47;3.50;;;;;;;;;;5071951;28;20661;-56
2023/10/04 12:40:23;;;;;;;8.37;3.57;;;;;;;;;;5071673;28;20241;-56
2023/10/04 12:42:51;;;;;;;6.47;3.67;;;;;;;;;;5071461;28;20199;-56
2023/10/04 12:45:19;;;;;;;8.57;4.03;;;;;;;;;;5071754;28;20250;-56
2023/10/04 12:47:45;;;;;;;10.30;3.93;;;;;;;;;;5071593;28;20826;-56
2023/10/04 12:50:14;;;;;;;6.60;3.70;;;;;;;;;;5071399;28;20196;-56
2023/10/04 12:52:41;;;;;;;9.83;3.90;;;;;;;;;;5071623;28;20203;-56
2023/10/04 12:55:07;;;;;;;5.90;3.23;;;;;;;;;;5071430;28;20229;-56
2023/10/04 12:57:34;;;;;;;6.07;3.33;;;;;;;;;;5071715;28;20195;-56
2023/10/04 13:00:00;;;;;;;8.00;3.43;;;;;;;;;;5071819;28;20201;-56
2023/10/04 13:02:28;;;;;;;7.67;3.33;;;;;;;;;;5071457;28;20226;-56
2023/10/04 13:04:55;;;;;;;6.13;3.60;;;;;;;;;;5049428;28;20665;-56
2023/10/04 13:07:21;;;;;;;7.03;3.53;;;;;;;;;;5050060;28;20199;-56
2023/10/04 13:09:48;;;;;;;6.53;3.67;;;;;;;;;;5051569;28;20226;-54
2023/10/04 13:12:14;;;;;;;8.40;3.80;;;;;;;;;;5051682;28;20652;-55
2023/10/04 13:14:40;;;;;;;10.43;3.80;;;;;;;;;;5051631;28;20957;-53
2023/10/04 13:17:06;;;;;;;7.27;3.77;;;;;;;;;;5051784;28;20209;-53
2023/10/04 13:19:33;;;;;;;7.67;3.70;;;;;;;;;;5051546;28;20206;-55
2023/10/04 13:21:59;;;;;;;9.77;4.07;;;;;;;;;;5051700;28;20203;-60
2023/10/04 13:24:31;;;;;;;7.17;3.80;;;;;;;;;;5051458;28;20207;-55
2023/10/04 13:26:57;;;;;;;9.40;3.27;;;;;;;;;;5054368;28;20223;-59
2023/10/04 13:29:23;;;;;;;7.07;3.63;;;;;;;;;;5055542;28;20234;-54
2023/10/04 13:31:49;;;;;;;8.00;3.67;;;;;;;;;;5055547;28;20946;-54
2023/10/04 13:34:15;;;;;;;8.23;3.87;;;;;;;;;;5055460;28;20205;-54
2023/10/04 13:36:43;;;;;;;12.57;4.00;;;;;;;;;;5055269;28;20219;-53
2023/10/04 13:39:10;;;;;;;7.87;3.87;;;;;;;;;;5055199;28;20238;-54
2023/10/04 13:41:36;;;;;;;9.23;3.57;;;;;;;;;;5053315;28;20210;-54
2023/10/04 13:44:02;;;;;;;9.87;3.73;;;;;;;;;;5055056;28;20249;-54
2023/10/04 13:46:28;;;;;;;8.90;3.70;;;;;;;;;;5054747;28;20303;-54
2023/10/04 13:48:55;;;;;;;6.27;3.43;;;;;;;;;;5054683;28;20230;-54
2023/10/04 13:51:25;;;;;;;8.47;3.63;;;;;;;;;;5054732;28;20207;-54
2023/10/04 13:53:52;;;;;;;8.60;3.43;;;;;;;;;;5054593;28;20228;-54
2023/10/04 13:56:18;;;;;;;8.40;3.90;;;;;;;;;;5054731;28;20196;-54
2023/10/04 13:58:44;;;;;;;9.73;3.80;;;;;;;;;;5054477;28;20285;-54
2023/10/04 14:01:11;;;;;;;9.47;3.83;;;;;;;;;;5054631;28;20221;-54
2023/10/04 14:03:37;;;;;;;7.80;3.80;;;;;;;;;;5054255;28;20197;-54
2023/10/04 14:06:10;;;;;;;6.13;4.27;;;;;;;;;;5054477;28;20224;-54
2023/10/04 14:08:36;;;;;;;7.97;3.87;;;;;;;;;;5054475;28;20205;-54
2023/10/04 14:11:04;;;;;;;8.03;4.00;;;;;;;;;;5054520;28;20201;-54
2023/10/04 14:13:31;;;;;;;8.23;4.00;;;;;;;;;;5054229;28;20273;-54
2023/10/04 14:15:57;;;;;;;7.63;3.63;;;;;;;;;;5054054;28;20281;-54
2023/10/04 14:18:24;;;;;;;10.00;3.77;;;;;;;;;;5054030;28;20198;-54
2023/10/04 14:20:54;;;;;;;7.77;3.90;;;;;;;;;;5054064;28;20210;-54
2023/10/04 14:23:21;;;;;;;10.87;4.10;;;;;;;;;;5054301;28;20668;-53
2023/10/04 14:25:49;;;;;;;8.87;3.77;;;;;;;;;;5053950;28;20303;-54
2023/10/04 14:28:17;;;;;;;9.20;3.80;;;;;;;;;;5054101;28;20219;-54
2023/10/04 14:30:46;;;;;;;6.63;3.70;;;;;;;;;;5053928;28;20205;-54
2023/10/04 14:33:12;;;;;;;8.50;4.00;;;;;;;;;;5053852;28;20695;-54
2023/10/04 14:35:38;;;;;;;10.27;3.87;;;;;;;;;;5053902;28;20566;-54
2023/10/04 14:38:06;;;;;;;6.30;3.73;;;;;;;;;;5052816;28;20201;-54
2023/10/04 14:40:32;;;;;;;10.67;4.73;;;;;;;;;;5053764;28;20315;-54
2023/10/04 14:42:58;;;;;;;8.77;4.47;;;;;;;;;;5053676;28;20247;-54